createdAt,value
2019-05-23T00:00:56.459Z,99.90
2019-05-23T00:03:28.391Z,99.90
2019-05-23T00:06:04.355Z,99.90
2019-05-23T00:08:34.159Z,99.90
2019-05-23T00:11:22.186Z,99.90
2019-05-23T00:14:00.363Z,99.90
2019-05-23T00:16:31.071Z,99.90
2019-05-23T00:19:02.368Z,99.90
2019-05-23T00:21:32.915Z,99.90
2019-05-23T00:24:03.847Z,99.90
2019-05-23T00:26:34.528Z,99.90
2019-05-23T00:29:10.184Z,99.90
2019-05-23T00:31:40.108Z,99.90
2019-05-23T00:34:11.031Z,99.90
2019-05-23T00:36:41.893Z,99.90
2019-05-23T00:39:11.797Z,99.90
2019-05-23T00:41:41.196Z,99.90
2019-05-23T00:44:11.546Z,99.90
2019-05-23T00:46:41.160Z,99.90
2019-05-23T00:49:11.700Z,99.90
2019-05-23T00:51:41.658Z,99.90
2019-05-23T00:54:11.318Z,99.90
2019-05-23T00:56:41.805Z,99.90
2019-05-23T00:59:25.847Z,99.90
2019-05-23T01:01:43.025Z,99.90
2019-05-23T01:04:13.716Z,99.90
2019-05-23T01:06:44.325Z,99.90
2019-05-23T01:09:13.429Z,99.90
2019-05-23T01:11:44.164Z,99.90
2019-05-23T01:14:14.060Z,99.90
2019-05-23T01:16:43.517Z,99.90
2019-05-23T01:19:12.588Z,99.90
2019-05-23T01:21:59.423Z,99.90
2019-05-23T01:24:40.077Z,99.90
2019-05-23T01:27:10.297Z,99.90
2019-05-23T01:29:43.112Z,99.90
2019-05-23T01:32:22.357Z,99.90
2019-05-23T01:34:52.545Z,99.90
2019-05-23T01:37:21.650Z,99.90
2019-05-23T01:39:50.734Z,99.90
2019-05-23T01:42:20.494Z,99.90
2019-05-23T01:44:49.581Z,99.90
2019-05-23T01:47:20.102Z,99.90
2019-05-23T01:49:49.945Z,99.90
2019-05-23T01:52:19.943Z,99.90
2019-05-23T01:54:49.166Z,99.90
2019-05-23T01:57:18.574Z,99.90
2019-05-23T01:59:48.243Z,99.90
2019-05-23T02:02:19.187Z,99.90
2019-05-23T02:04:48.382Z,99.90
2019-05-23T02:07:18.140Z,99.90
2019-05-23T02:09:47.298Z,99.90
2019-05-23T02:12:17.887Z,99.90
2019-05-23T02:14:49.583Z,99.90
2019-05-23T02:17:19.478Z,99.90
2019-05-23T02:19:48.758Z,99.90
2019-05-23T02:22:18.015Z,99.90
2019-05-23T02:24:48.476Z,99.90
2019-05-23T02:27:17.903Z,99.90
2019-05-23T02:29:47.326Z,99.90
2019-05-23T02:32:17.654Z,99.90
2019-05-23T02:34:47.335Z,99.90
2019-05-23T02:37:29.036Z,99.90
2019-05-23T02:40:04.818Z,99.90
2019-05-23T02:42:42.376Z,99.90
2019-05-23T02:45:18.858Z,99.90
2019-05-23T02:47:53.071Z,99.90
2019-05-23T02:50:28.488Z,99.90
2019-05-23T02:52:59.747Z,99.90
2019-05-23T02:55:34.467Z,99.90
2019-05-23T02:58:15.263Z,99.90
2019-05-23T03:00:55.803Z,99.90
2019-05-23T03:03:29.236Z,99.90
2019-05-23T03:06:00.848Z,99.90
2019-05-23T03:08:31.787Z,99.90
2019-05-23T03:11:19.323Z,99.90
2019-05-23T03:13:49.881Z,99.90
2019-05-23T03:16:24.313Z,99.90
2019-05-23T03:18:59.804Z,99.90
2019-05-23T03:21:30.867Z,99.90
2019-05-23T03:24:02.600Z,99.90
2019-05-23T03:27:12.600Z,99.90
2019-05-23T03:32:38.696Z,99.90
2019-05-23T03:35:24.053Z,99.90
2019-05-23T03:37:53.700Z,99.90
2019-05-23T03:40:23.789Z,99.90
2019-05-23T03:42:53.355Z,99.90
2019-05-23T03:45:26.433Z,99.90
2019-05-23T03:47:55.897Z,99.90
2019-05-23T03:50:26.129Z,99.90
2019-05-23T03:52:56.768Z,99.90
2019-05-23T03:55:28.217Z,99.90
2019-05-23T03:57:57.536Z,99.90
2019-05-23T04:00:29.827Z,99.90
2019-05-23T04:02:58.926Z,99.90
2019-05-23T04:05:29.407Z,99.90
2019-05-23T04:08:00.205Z,99.90
2019-05-23T04:10:29.612Z,99.90
2019-05-23T04:12:58.997Z,99.90
2019-05-23T04:15:28.542Z,99.90
2019-05-23T04:17:57.854Z,99.90
2019-05-23T04:20:26.969Z,99.90
2019-05-23T04:22:56.878Z,99.90
2019-05-23T04:25:26.621Z,99.90
2019-05-23T04:27:56.368Z,99.90
2019-05-23T04:30:25.341Z,99.90
2019-05-23T04:32:54.586Z,99.90
2019-05-23T04:35:24.024Z,99.90
2019-05-23T04:37:53.356Z,99.90
2019-05-23T04:40:22.590Z,99.90
2019-05-23T04:42:51.716Z,99.90
2019-05-23T04:45:21.431Z,99.90
2019-05-23T04:47:50.941Z,99.90
2019-05-23T04:50:21.208Z,99.90
2019-05-23T04:52:50.601Z,99.90
2019-05-23T04:55:19.736Z,99.90
2019-05-23T04:57:49.328Z,99.90
2019-05-23T05:00:19.619Z,99.90
2019-05-23T05:02:48.747Z,99.90
2019-05-23T05:05:19.013Z,99.90
2019-05-23T05:07:48.035Z,99.90
2019-05-23T05:10:20.175Z,99.90
2019-05-23T05:12:49.412Z,99.90
2019-05-23T05:15:18.580Z,99.90
2019-05-23T05:17:48.603Z,99.90
2019-05-23T05:20:17.995Z,99.90
2019-05-23T05:22:47.675Z,99.90
2019-05-23T05:25:17.635Z,99.90
2019-05-23T05:27:47.230Z,99.90
2019-05-23T05:30:17.440Z,99.90
2019-05-23T05:32:46.828Z,99.90
2019-05-23T05:35:16.415Z,99.90
2019-05-23T05:37:45.488Z,99.90
2019-05-23T05:40:14.971Z,99.90
2019-05-23T05:42:45.976Z,99.90
2019-05-23T05:45:16.170Z,99.90
2019-05-23T05:47:45.284Z,99.90
2019-05-23T05:50:14.791Z,99.90
2019-05-23T05:52:43.895Z,99.90
2019-05-23T05:55:13.292Z,99.90
2019-05-23T05:57:42.661Z,99.90
2019-05-23T06:00:24.965Z,99.90
2019-05-23T06:03:04.203Z,99.90
2019-05-23T06:05:34.130Z,99.90
2019-05-23T06:08:03.604Z,99.90
2019-05-23T06:10:33.117Z,99.90
2019-05-23T06:13:02.985Z,99.90
2019-05-23T06:15:33.492Z,99.90
2019-05-23T06:18:02.454Z,99.90
2019-05-23T06:20:31.726Z,99.90
2019-05-23T06:23:01.420Z,99.90
2019-05-23T06:25:30.533Z,99.90
2019-05-23T06:28:01.095Z,99.90
2019-05-23T06:30:32.846Z,99.90
2019-05-23T06:33:21.331Z,99.90
2019-05-23T06:35:34.036Z,99.90
2019-05-23T06:38:03.340Z,99.90
2019-05-23T06:40:33.105Z,99.90
2019-05-23T06:43:02.166Z,99.90
2019-05-23T06:45:31.481Z,99.90
2019-05-23T06:48:00.746Z,99.90
2019-05-23T06:50:30.533Z,99.90
2019-05-23T06:52:59.594Z,99.90
2019-05-23T06:55:28.886Z,99.90
2019-05-23T06:57:58.122Z,99.90
2019-05-23T07:00:28.705Z,99.90
2019-05-23T07:02:57.861Z,99.90
2019-05-23T07:05:32.146Z,99.90
2019-05-23T07:08:01.921Z,99.90
2019-05-23T07:10:31.162Z,99.90
2019-05-23T07:13:00.275Z,99.90
2019-05-23T07:15:29.506Z,99.90
2019-05-23T07:18:00.150Z,99.90
2019-05-23T07:20:29.354Z,99.90
2019-05-23T07:22:58.896Z,99.90
2019-05-23T07:25:28.340Z,99.90
2019-05-23T07:27:57.671Z,99.90
2019-05-23T07:30:27.299Z,99.90
2019-05-23T07:32:56.996Z,99.90
2019-05-23T07:35:26.632Z,99.90
2019-05-23T07:37:55.797Z,99.90
2019-05-23T07:40:26.731Z,99.90
2019-05-23T07:42:55.946Z,99.90
2019-05-23T07:45:30.434Z,99.90
2019-05-23T07:48:00.079Z,99.90
2019-05-23T07:50:29.057Z,99.90
2019-05-23T07:52:59.039Z,99.90
2019-05-23T07:55:41.292Z,99.90
2019-05-23T07:58:13.613Z,99.90
2019-05-23T08:00:48.357Z,99.90
2019-05-23T08:03:18.080Z,99.90
2019-05-23T08:05:47.431Z,99.90
2019-05-23T08:08:17.686Z,99.90
2019-05-23T08:10:47.130Z,99.90
2019-05-23T08:13:16.140Z,99.90
2019-05-23T08:15:46.058Z,99.90
2019-05-23T08:18:15.768Z,99.90
2019-05-23T08:20:46.899Z,99.90
2019-05-23T08:23:17.007Z,99.90
2019-05-23T08:25:46.385Z,99.90
2019-05-23T08:28:15.527Z,99.90
2019-05-23T08:30:45.048Z,99.90
2019-05-23T08:33:15.589Z,99.90
2019-05-23T08:35:46.083Z,99.90
2019-05-23T08:38:15.567Z,99.90
2019-05-23T08:40:45.472Z,99.90
2019-05-23T08:43:14.695Z,99.90
2019-05-23T08:45:44.472Z,99.90
2019-05-23T08:48:13.993Z,99.90
2019-05-23T08:50:43.138Z,99.90
2019-05-23T08:53:12.395Z,99.90
2019-05-23T08:55:41.596Z,99.90
2019-05-23T08:58:12.068Z,99.90
2019-05-23T09:00:42.909Z,99.90
2019-05-23T09:03:12.703Z,99.90
2019-05-23T09:05:43.503Z,99.90
2019-05-23T09:08:16.703Z,99.90
2019-05-23T09:10:44.271Z,99.90
2019-05-23T09:13:13.526Z,99.90
2019-05-23T09:15:42.617Z,99.20
2019-05-23T09:18:12.796Z,97.90
2019-05-23T09:20:41.896Z,97.30
2019-05-23T09:23:12.028Z,96.40
2019-05-23T09:25:41.120Z,96.20
2019-05-23T09:28:11.710Z,94.40
2019-05-23T09:30:41.254Z,93.30
2019-05-23T09:33:10.741Z,93.40
2019-05-23T09:35:39.956Z,93.60
2019-05-23T09:38:08.941Z,93.70
2019-05-23T09:40:38.101Z,93.50
2019-05-23T09:43:07.809Z,93.10
2019-05-23T09:45:37.455Z,93.90
2019-05-23T09:48:06.914Z,93.60
2019-05-23T09:50:36.141Z,93.20
2019-05-23T09:53:05.293Z,92.60
2019-05-23T09:55:35.571Z,91.60
2019-05-23T09:58:04.853Z,90.70
2019-05-23T10:00:35.676Z,90.80
2019-05-23T10:03:07.012Z,91.50
2019-05-23T10:05:43.357Z,91.50
2019-05-23T10:08:07.423Z,90.90
2019-05-23T10:10:36.502Z,90.20
2019-05-23T10:13:05.737Z,88.40
2019-05-23T10:15:45.158Z,88.70
2019-05-23T10:18:18.122Z,89.40
2019-05-23T10:20:47.242Z,87.10
2019-05-23T10:23:16.318Z,86.30
2019-05-23T10:25:45.851Z,86.10
2019-05-23T10:28:15.408Z,85.20
2019-05-23T10:30:44.586Z,84.70
2019-05-23T10:33:13.802Z,85.00
2019-05-23T10:35:58.903Z,84.60
2019-05-23T10:38:13.721Z,86.60
2019-05-23T10:40:42.921Z,85.30
2019-05-23T10:43:12.558Z,82.50
2019-05-23T10:45:41.654Z,83.10
2019-05-23T10:48:11.783Z,82.20
2019-05-23T10:50:44.919Z,82.70
2019-05-23T10:53:12.494Z,83.20
2019-05-23T10:55:41.882Z,83.40
2019-05-23T10:58:12.027Z,84.00
2019-05-23T11:00:42.822Z,84.80
2019-05-23T11:03:13.451Z,83.60
2019-05-23T11:05:43.618Z,85.20
2019-05-23T11:08:12.812Z,85.20
2019-05-23T11:10:42.412Z,83.30
2019-05-23T11:13:11.466Z,83.10
2019-05-23T11:15:40.623Z,81.60
2019-05-23T11:18:11.110Z,80.80
2019-05-23T11:20:41.242Z,78.90
2019-05-23T11:23:12.089Z,79.50
2019-05-23T11:25:41.188Z,78.90
2019-05-23T11:28:10.220Z,77.60
2019-05-23T11:30:51.711Z,77.70
2019-05-23T11:33:21.693Z,76.50
2019-05-23T11:35:51.672Z,77.30
2019-05-23T11:38:21.208Z,76.70
2019-05-23T11:40:50.831Z,76.40
2019-05-23T11:43:20.652Z,76.10
2019-05-23T11:46:09.188Z,75.90
2019-05-23T11:48:38.763Z,75.70
2019-05-23T11:51:07.880Z,74.20
2019-05-23T11:53:37.167Z,75.00
2019-05-23T11:56:06.247Z,73.80
2019-05-23T11:58:35.720Z,74.40
2019-05-23T12:01:20.950Z,74.70
2019-05-23T12:03:49.508Z,74.50
2019-05-23T12:06:18.784Z,73.50
2019-05-23T12:08:47.900Z,74.00
2019-05-23T12:11:18.028Z,73.70
2019-05-23T12:13:47.085Z,73.00
2019-05-23T12:16:16.733Z,73.90
2019-05-23T12:18:45.847Z,72.70
2019-05-23T12:21:15.453Z,71.90
2019-05-23T12:23:44.552Z,74.40
2019-05-23T12:26:14.200Z,73.30
2019-05-23T12:28:43.261Z,72.60
2019-05-23T12:31:12.886Z,72.80
2019-05-23T12:33:42.064Z,72.00
2019-05-23T12:36:13.241Z,72.40
2019-05-23T12:38:42.393Z,72.50
2019-05-23T12:41:13.117Z,72.20
2019-05-23T12:43:42.176Z,73.00
2019-05-23T12:46:11.283Z,71.10
2019-05-23T12:48:53.413Z,72.50
2019-05-23T12:51:24.462Z,71.70
2019-05-23T12:53:53.631Z,72.20
2019-05-23T12:56:23.013Z,72.40
2019-05-23T12:58:52.488Z,71.70
2019-05-23T13:01:22.535Z,72.10
2019-05-23T13:03:51.621Z,73.30
2019-05-23T13:06:20.877Z,70.80
2019-05-23T13:08:50.277Z,71.40
2019-05-23T13:11:19.438Z,71.60
2019-05-23T13:13:48.530Z,72.80
2019-05-23T13:16:17.629Z,72.10
2019-05-23T13:18:46.669Z,70.50
2019-05-23T13:21:15.897Z,70.80
2019-05-23T13:23:45.215Z,71.60
2019-05-23T13:26:14.385Z,70.30
2019-05-23T13:28:43.438Z,70.00
2019-05-23T13:31:12.405Z,69.70
2019-05-23T13:33:41.729Z,70.60
2019-05-23T13:36:10.961Z,70.30
2019-05-23T13:38:40.438Z,71.50
2019-05-23T13:41:10.118Z,70.90
2019-05-23T13:43:39.176Z,73.00
2019-05-23T13:46:08.989Z,70.90
2019-05-23T13:48:38.161Z,72.10
2019-05-23T13:51:07.445Z,72.60
2019-05-23T13:53:36.612Z,72.10
2019-05-23T13:56:06.019Z,72.10
2019-05-23T13:58:35.531Z,72.40
2019-05-23T14:01:09.263Z,71.90
2019-05-23T14:03:36.520Z,72.20
2019-05-23T14:06:07.252Z,72.50
2019-05-23T14:08:36.320Z,71.60
2019-05-23T14:11:06.766Z,70.80
2019-05-23T14:13:36.007Z,71.60
2019-05-23T14:16:05.823Z,71.10
2019-05-23T14:18:35.983Z,72.30
2019-05-23T14:21:05.497Z,71.00
2019-05-23T14:23:34.683Z,69.70
2019-05-23T14:26:05.259Z,71.40
2019-05-23T14:28:34.527Z,70.30
2019-05-23T14:31:07.907Z,70.10
2019-05-23T14:33:54.975Z,70.10
2019-05-23T14:36:38.310Z,73.60
2019-05-23T14:39:12.088Z,71.90
2019-05-23T14:41:48.892Z,71.80
2019-05-23T14:44:17.948Z,70.70
2019-05-23T14:47:04.919Z,70.30
2019-05-23T14:49:38.483Z,71.10
2019-05-23T14:52:16.216Z,71.50
2019-05-23T14:54:52.336Z,70.80
2019-05-23T14:57:22.044Z,70.60
2019-05-23T14:59:51.547Z,70.30
2019-05-23T15:02:21.807Z,70.70
2019-05-23T15:04:50.850Z,71.50
2019-05-23T15:07:20.547Z,70.90
2019-05-23T15:09:49.540Z,69.50
2019-05-23T15:12:19.241Z,71.10
2019-05-23T15:14:48.472Z,70.90
2019-05-23T15:17:17.689Z,70.80
2019-05-23T15:19:47.149Z,72.10
2019-05-23T15:22:16.344Z,70.90
2019-05-23T15:24:45.790Z,69.90
2019-05-23T15:27:15.253Z,69.80
2019-05-23T15:29:44.400Z,69.90
2019-05-23T15:32:13.684Z,70.00
2019-05-23T15:34:42.996Z,70.30
2019-05-23T15:37:12.833Z,70.50
2019-05-23T15:39:41.909Z,71.10
2019-05-23T15:42:11.204Z,71.50
2019-05-23T15:44:40.138Z,71.10
2019-05-23T15:47:09.568Z,70.80
2019-05-23T15:49:40.177Z,70.90
2019-05-23T15:52:28.261Z,70.90
2019-05-23T15:55:23.217Z,71.90
2019-05-23T15:58:00.986Z,72.30
2019-05-23T16:00:55.511Z,71.90
2019-05-23T16:03:42.299Z,72.10
2019-05-23T16:06:15.043Z,72.90
2019-05-23T16:08:44.982Z,72.10
2019-05-23T16:11:17.420Z,72.60
2019-05-23T16:13:45.318Z,72.90
2019-05-23T16:16:14.355Z,72.70
2019-05-23T16:18:44.373Z,73.00
2019-05-23T16:21:13.599Z,73.00
2019-05-23T16:23:42.679Z,73.30
2019-05-23T16:26:12.137Z,73.70
2019-05-23T16:28:41.230Z,74.30
2019-05-23T16:31:10.430Z,74.60
2019-05-23T16:33:39.450Z,74.60
2019-05-23T16:36:08.638Z,74.20
2019-05-23T16:38:37.608Z,74.30
2019-05-23T16:41:06.931Z,74.20
2019-05-23T16:43:36.414Z,74.70
2019-05-23T16:46:05.411Z,75.40
2019-05-23T16:48:34.866Z,75.70
2019-05-23T16:51:03.918Z,76.20
2019-05-23T16:53:35.935Z,76.60
2019-05-23T16:56:13.127Z,77.10
2019-05-23T16:59:04.659Z,75.60
2019-05-23T17:01:55.548Z,75.80
2019-05-23T17:04:25.702Z,76.60
2019-05-23T17:07:03.578Z,76.30
2019-05-23T17:10:06.720Z,76.90
2019-05-23T17:12:27.083Z,77.30
2019-05-23T17:15:00.958Z,77.60
2019-05-23T17:18:02.958Z,77.10
2019-05-23T17:20:54.407Z,77.10
2019-05-23T17:23:37.634Z,76.40
2019-05-23T17:26:12.023Z,76.90
2019-05-23T17:28:43.974Z,76.50
2019-05-23T17:31:15.617Z,76.80
2019-05-23T17:33:45.538Z,76.90
2019-05-23T17:36:15.163Z,77.10
2019-05-23T17:38:44.407Z,77.80
2019-05-23T17:41:14.072Z,78.10
2019-05-23T17:43:43.030Z,78.40
2019-05-23T17:46:12.243Z,77.80
2019-05-23T17:48:41.419Z,79.70
2019-05-23T17:51:10.600Z,79.50
2019-05-23T17:53:39.820Z,79.90
2019-05-23T17:56:09.139Z,79.70
2019-05-23T17:58:38.124Z,80.30
2019-05-23T18:01:08.224Z,80.80
2019-05-23T18:03:37.811Z,81.10
2019-05-23T18:06:07.548Z,80.40
2019-05-23T18:08:37.658Z,81.20
2019-05-23T18:11:06.704Z,81.50
2019-05-23T18:13:35.851Z,80.90
2019-05-23T18:16:05.728Z,81.60
2019-05-23T18:18:34.779Z,82.60
2019-05-23T18:21:06.516Z,83.00
2019-05-23T18:23:35.640Z,83.30
2019-05-23T18:26:06.897Z,83.30
2019-05-23T18:28:36.026Z,83.50
2019-05-23T18:31:11.337Z,84.30
2019-05-23T18:33:41.986Z,84.10
2019-05-23T18:36:11.418Z,85.00
2019-05-23T18:38:40.602Z,84.90
2019-05-23T18:41:10.001Z,85.30
2019-05-23T18:43:39.129Z,85.60
2019-05-23T18:46:13.650Z,85.80
2019-05-23T18:48:42.766Z,85.90
2019-05-23T18:51:11.778Z,86.20
2019-05-23T18:53:41.331Z,86.50
2019-05-23T18:56:10.555Z,86.90
2019-05-23T18:58:39.763Z,87.30
2019-05-23T19:01:13.933Z,87.50
2019-05-23T19:03:43.674Z,87.60
2019-05-23T19:06:12.815Z,87.50
2019-05-23T19:08:42.294Z,87.20
2019-05-23T19:11:20.825Z,86.80
2019-05-23T19:13:42.150Z,86.90
2019-05-23T19:16:11.225Z,86.70
2019-05-23T19:18:40.615Z,86.10
2019-05-23T19:21:11.567Z,85.70
2019-05-23T19:23:41.159Z,85.60
2019-05-23T19:26:10.455Z,84.40
2019-05-23T19:28:40.546Z,84.20
2019-05-23T19:31:09.952Z,84.10
2019-05-23T19:33:40.582Z,84.30
2019-05-23T19:36:12.631Z,84.00
2019-05-23T19:38:41.679Z,83.60
2019-05-23T19:41:12.476Z,84.60
2019-05-23T19:43:42.423Z,83.90
2019-05-23T19:46:12.013Z,84.80
2019-05-23T19:48:42.915Z,84.80
2019-05-23T19:51:11.839Z,84.70
2019-05-23T19:53:41.390Z,84.80
2019-05-23T19:56:10.798Z,85.10
2019-05-23T19:58:39.931Z,85.20
2019-05-23T20:01:09.005Z,85.10
2019-05-23T20:03:38.636Z,85.60
2019-05-23T20:06:09.449Z,85.00
2019-05-23T20:08:39.632Z,86.00
2019-05-23T20:11:08.738Z,85.80
2019-05-23T20:13:38.180Z,86.40
2019-05-23T20:16:08.036Z,86.50
2019-05-23T20:18:37.201Z,85.70
2019-05-23T20:21:07.087Z,85.40
2019-05-23T20:23:36.165Z,84.70
2019-05-23T20:26:08.278Z,85.40
2019-05-23T20:28:39.799Z,85.70
2019-05-23T20:31:09.030Z,85.10
2019-05-23T20:33:38.286Z,85.30
2019-05-23T20:36:13.030Z,85.40
2019-05-23T20:38:42.506Z,85.70
2019-05-23T20:41:12.031Z,86.60
2019-05-23T20:43:41.204Z,86.80
2019-05-23T20:46:10.649Z,87.10
2019-05-23T20:48:40.470Z,88.00
2019-05-23T20:51:09.520Z,88.20
2019-05-23T20:53:38.566Z,89.10
2019-05-23T20:56:07.707Z,89.60
2019-05-23T20:58:36.724Z,90.10
2019-05-23T21:01:20.219Z,90.40
2019-05-23T21:03:50.359Z,90.50
2019-05-23T21:06:19.387Z,90.50
2019-05-23T21:08:48.339Z,90.50
2019-05-23T21:11:17.302Z,90.90
2019-05-23T21:13:46.360Z,91.00
2019-05-23T21:16:15.598Z,91.30
2019-05-23T21:18:44.959Z,91.50
2019-05-23T21:21:14.667Z,91.50
2019-05-23T21:23:43.635Z,91.80
2019-05-23T21:26:12.587Z,92.00
2019-05-23T21:28:42.052Z,92.10
2019-05-23T21:31:15.359Z,92.10
2019-05-23T21:33:44.388Z,92.10
2019-05-23T21:36:13.431Z,92.20
2019-05-23T21:38:42.494Z,92.50
2019-05-23T21:41:11.482Z,92.60
2019-05-23T21:43:41.596Z,93.30
2019-05-23T21:46:10.711Z,93.10
2019-05-23T21:48:39.763Z,93.60
2019-05-23T21:51:08.851Z,93.60
2019-05-23T21:53:37.905Z,93.90
2019-05-23T21:56:07.310Z,94.10
2019-05-23T21:58:36.429Z,94.30
2019-05-23T22:01:40.608Z,94.70
2019-05-23T22:04:37.804Z,95.10
2019-05-23T22:07:08.252Z,95.60
2019-05-23T22:09:37.621Z,96.00
2019-05-23T22:12:09.035Z,96.40
2019-05-23T22:14:38.488Z,96.70
2019-05-23T22:17:07.474Z,97.00
2019-05-23T22:19:36.524Z,97.00
2019-05-23T22:22:06.423Z,97.20
2019-05-23T22:24:35.729Z,97.20
2019-05-23T22:27:06.808Z,97.40
2019-05-23T22:29:35.845Z,98.10
2019-05-23T22:32:06.009Z,98.60
2019-05-23T22:34:52.809Z,99.00
2019-05-23T22:37:26.605Z,99.20
2019-05-23T22:39:55.663Z,99.80
2019-05-23T22:42:26.177Z,99.90
2019-05-23T22:44:55.159Z,99.90
2019-05-23T22:47:25.136Z,99.90
2019-05-23T22:49:54.301Z,99.90
2019-05-23T22:52:23.654Z,99.90
2019-05-23T22:54:52.689Z,99.90
2019-05-23T22:57:21.753Z,99.90
2019-05-23T22:59:50.798Z,99.90
2019-05-23T23:02:19.849Z,99.90
2019-05-23T23:04:48.885Z,99.90
2019-05-23T23:07:18.205Z,99.90
2019-05-23T23:09:47.747Z,99.90
2019-05-23T23:12:16.809Z,99.90
2019-05-23T23:14:45.786Z,99.90
2019-05-23T23:17:15.323Z,99.90
2019-05-23T23:19:44.321Z,99.90
2019-05-23T23:22:13.745Z,99.90
2019-05-23T23:24:43.090Z,99.90
2019-05-23T23:27:12.197Z,99.90
2019-05-23T23:29:41.341Z,99.90
2019-05-23T23:32:11.241Z,99.90
2019-05-23T23:34:40.977Z,99.90
2019-05-23T23:37:10.050Z,99.90
2019-05-23T23:39:39.163Z,99.90
2019-05-23T23:42:08.934Z,99.90
2019-05-23T23:44:37.067Z,99.90
2019-05-23T23:47:24.440Z,99.90
2019-05-23T23:50:11.847Z,99.90
2019-05-23T23:52:58.870Z,99.90
2019-05-23T23:55:45.486Z,99.90
2019-05-23T23:58:13.706Z,99.90
